sensor_id;sensor_type;location;lat;lon;timestamp;temperature;humidity
73277;DHT22;61501;43.316;5.372;2022-11-20T00:00:54;10.00;86.20
73277;DHT22;61501;43.316;5.372;2022-11-20T00:03:20;10.00;85.90
73277;DHT22;61501;43.316;5.372;2022-11-20T00:05:46;10.00;86.00
73277;DHT22;61501;43.316;5.372;2022-11-20T00:08:12;10.00;86.10
73277;DHT22;61501;43.316;5.372;2022-11-20T00:10:38;9.90;86.20
73277;DHT22;61501;43.316;5.372;2022-11-20T00:13:05;9.90;86.30
73277;DHT22;61501;43.316;5.372;2022-11-20T00:15:30;9.90;86.00
73277;DHT22;61501;43.316;5.372;2022-11-20T00:17:56;9.90;86.10
73277;DHT22;61501;43.316;5.372;2022-11-20T00:20:22;9.90;86.00
73277;DHT22;61501;43.316;5.372;2022-11-20T00:22:48;9.90;86.10
73277;DHT22;61501;43.316;5.372;2022-11-20T00:25:14;9.90;86.30
73277;DHT22;61501;43.316;5.372;2022-11-20T00:27:40;9.90;86.10
73277;DHT22;61501;43.316;5.372;2022-11-20T00:30:06;9.80;86.30
73277;DHT22;61501;43.316;5.372;2022-11-20T00:32:32;9.80;86.90
73277;DHT22;61501;43.316;5.372;2022-11-20T00:34:57;9.80;86.80
73277;DHT22;61501;43.316;5.372;2022-11-20T00:37:23;9.80;86.60
73277;DHT22;61501;43.316;5.372;2022-11-20T00:39:49;9.80;86.80
73277;DHT22;61501;43.316;5.372;2022-11-20T00:42:14;9.80;87.00
73277;DHT22;61501;43.316;5.372;2022-11-20T00:44:40;9.80;87.40
73277;DHT22;61501;43.316;5.372;2022-11-20T00:47:05;9.70;87.40
73277;DHT22;61501;43.316;5.372;2022-11-20T00:49:31;9.70;87.50
73277;DHT22;61501;43.316;5.372;2022-11-20T00:51:56;9.80;87.50
73277;DHT22;61501;43.316;5.372;2022-11-20T00:54:22;9.70;87.60
73277;DHT22;61501;43.316;5.372;2022-11-20T00:56:48;9.70;88.10
73277;DHT22;61501;43.316;5.372;2022-11-20T00:59:13;9.70;88.00
73277;DHT22;61501;43.316;5.372;2022-11-20T01:01:39;9.70;88.30
73277;DHT22;61501;43.316;5.372;2022-11-20T01:04:05;9.70;88.70
73277;DHT22;61501;43.316;5.372;2022-11-20T01:06:33;9.70;88.70
73277;DHT22;61501;43.316;5.372;2022-11-20T01:09:02;9.60;88.80
73277;DHT22;61501;43.316;5.372;2022-11-20T01:11:34;9.70;89.00
73277;DHT22;61501;43.316;5.372;2022-11-20T01:14:01;9.60;89.00
73277;DHT22;61501;43.316;5.372;2022-11-20T01:16:36;9.70;89.20
73277;DHT22;61501;43.316;5.372;2022-11-20T01:19:04;9.60;89.30
73277;DHT22;61501;43.316;5.372;2022-11-20T01:21:44;9.70;89.60
73277;DHT22;61501;43.316;5.372;2022-11-20T01:24:14;9.60;89.60
73277;DHT22;61501;43.316;5.372;2022-11-20T01:26:42;9.60;89.90
73277;DHT22;61501;43.316;5.372;2022-11-20T01:29:20;9.60;90.00
73277;DHT22;61501;43.316;5.372;2022-11-20T01:31:46;9.60;90.10
73277;DHT22;61501;43.316;5.372;2022-11-20T01:34:14;9.60;90.60
73277;DHT22;61501;43.316;5.372;2022-11-20T01:36:41;9.50;90.30
73277;DHT22;61501;43.316;5.372;2022-11-20T01:39:16;9.50;90.40
73277;DHT22;61501;43.316;5.372;2022-11-20T01:41:43;9.50;90.60
73277;DHT22;61501;43.316;5.372;2022-11-20T01:47:21;9.50;90.80
73277;DHT22;61501;43.316;5.372;2022-11-20T01:49:52;9.50;90.90
73277;DHT22;61501;43.316;5.372;2022-11-20T01:52:38;9.50;91.00
73277;DHT22;61501;43.316;5.372;2022-11-20T01:55:12;9.40;91.10
73277;DHT22;61501;43.316;5.372;2022-11-20T01:57:40;9.50;91.20
73277;DHT22;61501;43.316;5.372;2022-11-20T02:00:11;9.40;91.20
73277;DHT22;61501;43.316;5.372;2022-11-20T02:02:39;9.40;91.20
73277;DHT22;61501;43.316;5.372;2022-11-20T02:05:33;9.40;91.20
73277;DHT22;61501;43.316;5.372;2022-11-20T02:08:02;9.40;91.30
73277;DHT22;61501;43.316;5.372;2022-11-20T02:10:30;9.40;91.40
73277;DHT22;61501;43.316;5.372;2022-11-20T02:12:56;9.30;91.40
73277;DHT22;61501;43.316;5.372;2022-11-20T02:15:41;9.40;91.50
73277;DHT22;61501;43.316;5.372;2022-11-20T02:18:07;9.40;91.60
73277;DHT22;61501;43.316;5.372;2022-11-20T02:20:33;9.30;91.60
73277;DHT22;61501;43.316;5.372;2022-11-20T02:23:12;9.40;91.70
73277;DHT22;61501;43.316;5.372;2022-11-20T02:25:38;9.30;91.70
73277;DHT22;61501;43.316;5.372;2022-11-20T02:28:05;9.30;91.60
73277;DHT22;61501;43.316;5.372;2022-11-20T02:30:31;9.30;91.90
73277;DHT22;61501;43.316;5.372;2022-11-20T02:32:57;9.30;91.60
73277;DHT22;61501;43.316;5.372;2022-11-20T02:37:52;9.30;91.60
73277;DHT22;61501;43.316;5.372;2022-11-20T02:40:18;9.30;91.70
73277;DHT22;61501;43.316;5.372;2022-11-20T02:42:44;9.30;91.80
73277;DHT22;61501;43.316;5.372;2022-11-20T02:45:10;9.30;91.90
73277;DHT22;61501;43.316;5.372;2022-11-20T02:47:35;9.20;91.90
73277;DHT22;61501;43.316;5.372;2022-11-20T02:50:01;9.30;92.00
73277;DHT22;61501;43.316;5.372;2022-11-20T02:52:27;9.30;92.10
73277;DHT22;61501;43.316;5.372;2022-11-20T02:54:53;9.20;92.20
73277;DHT22;61501;43.316;5.372;2022-11-20T02:57:18;9.30;92.30
73277;DHT22;61501;43.316;5.372;2022-11-20T02:59:44;9.20;92.50
73277;DHT22;61501;43.316;5.372;2022-11-20T03:02:10;9.20;92.60
73277;DHT22;61501;43.316;5.372;2022-11-20T03:04:35;9.20;92.80
73277;DHT22;61501;43.316;5.372;2022-11-20T03:07:04;9.10;92.90
73277;DHT22;61501;43.316;5.372;2022-11-20T03:09:29;9.10;93.10
73277;DHT22;61501;43.316;5.372;2022-11-20T03:11:55;9.10;93.20
73277;DHT22;61501;43.316;5.372;2022-11-20T03:14:20;9.10;93.10
73277;DHT22;61501;43.316;5.372;2022-11-20T03:16:46;9.10;93.20
73277;DHT22;61501;43.316;5.372;2022-11-20T03:19:12;9.10;93.20
73277;DHT22;61501;43.316;5.372;2022-11-20T03:21:38;9.10;93.30
73277;DHT22;61501;43.316;5.372;2022-11-20T03:24:04;9.10;93.40
73277;DHT22;61501;43.316;5.372;2022-11-20T03:26:30;9.10;93.40
73277;DHT22;61501;43.316;5.372;2022-11-20T03:29:00;9.10;93.60
73277;DHT22;61501;43.316;5.372;2022-11-20T03:31:31;9.00;93.60
73277;DHT22;61501;43.316;5.372;2022-11-20T03:33:58;9.00;93.60
73277;DHT22;61501;43.316;5.372;2022-11-20T03:36:26;9.00;93.70
73277;DHT22;61501;43.316;5.372;2022-11-20T03:38:53;9.00;93.50
73277;DHT22;61501;43.316;5.372;2022-11-20T03:41:22;9.00;93.50
73277;DHT22;61501;43.316;5.372;2022-11-20T03:43:49;9.00;93.60
73277;DHT22;61501;43.316;5.372;2022-11-20T03:46:16;9.10;93.70
73277;DHT22;61501;43.316;5.372;2022-11-20T03:48:42;9.00;93.60
73277;DHT22;61501;43.316;5.372;2022-11-20T03:51:08;9.00;93.60
73277;DHT22;61501;43.316;5.372;2022-11-20T03:53:34;9.00;93.70
73277;DHT22;61501;43.316;5.372;2022-11-20T03:56:00;9.00;93.70
73277;DHT22;61501;43.316;5.372;2022-11-20T03:58:25;9.00;94.00
73277;DHT22;61501;43.316;5.372;2022-11-20T04:00:51;9.00;93.90
73277;DHT22;61501;43.316;5.372;2022-11-20T04:03:17;8.90;93.80
73277;DHT22;61501;43.316;5.372;2022-11-20T04:05:42;8.90;93.90
73277;DHT22;61501;43.316;5.372;2022-11-20T04:08:08;8.90;94.30
73277;DHT22;61501;43.316;5.372;2022-11-20T04:10:33;8.90;94.10
73277;DHT22;61501;43.316;5.372;2022-11-20T04:12:59;8.80;94.20
73277;DHT22;61501;43.316;5.372;2022-11-20T04:15:25;8.90;94.10
73277;DHT22;61501;43.316;5.372;2022-11-20T04:17:50;8.90;94.20
73277;DHT22;61501;43.316;5.372;2022-11-20T04:20:17;8.80;94.00
73277;DHT22;61501;43.316;5.372;2022-11-20T04:22:42;8.90;93.70
73277;DHT22;61501;43.316;5.372;2022-11-20T04:25:08;8.90;93.70
73277;DHT22;61501;43.316;5.372;2022-11-20T04:27:34;8.90;93.60
73277;DHT22;61501;43.316;5.372;2022-11-20T04:29:59;8.90;93.50
73277;DHT22;61501;43.316;5.372;2022-11-20T04:32:25;8.90;93.50
73277;DHT22;61501;43.316;5.372;2022-11-20T04:34:50;8.90;93.60
73277;DHT22;61501;43.316;5.372;2022-11-20T04:37:16;8.90;93.60
73277;DHT22;61501;43.316;5.372;2022-11-20T04:39:42;8.90;93.50
73277;DHT22;61501;43.316;5.372;2022-11-20T04:42:09;8.90;93.40
73277;DHT22;61501;43.316;5.372;2022-11-20T04:44:54;9.00;93.40
73277;DHT22;61501;43.316;5.372;2022-11-20T04:47:20;9.00;93.50
73277;DHT22;61501;43.316;5.372;2022-11-20T04:49:45;9.00;93.40
73277;DHT22;61501;43.316;5.372;2022-11-20T04:52:11;8.90;93.50
73277;DHT22;61501;43.316;5.372;2022-11-20T04:54:36;8.90;93.60
73277;DHT22;61501;43.316;5.372;2022-11-20T04:57:02;8.90;93.70
73277;DHT22;61501;43.316;5.372;2022-11-20T04:59:28;8.90;93.80
73277;DHT22;61501;43.316;5.372;2022-11-20T05:01:53;8.90;93.90
73277;DHT22;61501;43.316;5.372;2022-11-20T05:04:19;8.90;93.90
73277;DHT22;61501;43.316;5.372;2022-11-20T05:06:44;8.90;93.80
73277;DHT22;61501;43.316;5.372;2022-11-20T05:09:13;8.90;93.90
73277;DHT22;61501;43.316;5.372;2022-11-20T05:11:39;8.90;94.10
73277;DHT22;61501;43.316;5.372;2022-11-20T05:14:05;8.90;94.20
73277;DHT22;61501;43.316;5.372;2022-11-20T05:16:30;8.90;94.30
73277;DHT22;61501;43.316;5.372;2022-11-20T05:18:56;8.80;94.40
73277;DHT22;61501;43.316;5.372;2022-11-20T05:21:22;8.80;94.40
73277;DHT22;61501;43.316;5.372;2022-11-20T05:23:48;8.80;94.50
73277;DHT22;61501;43.316;5.372;2022-11-20T05:26:19;8.80;94.60
73277;DHT22;61501;43.316;5.372;2022-11-20T05:28:45;8.80;94.70
73277;DHT22;61501;43.316;5.372;2022-11-20T05:31:14;8.70;94.60
73277;DHT22;61501;43.316;5.372;2022-11-20T05:33:41;8.70;94.60
73277;DHT22;61501;43.316;5.372;2022-11-20T05:36:08;8.80;94.60
73277;DHT22;61501;43.316;5.372;2022-11-20T05:38:33;8.70;94.50
73277;DHT22;61501;43.316;5.372;2022-11-20T05:41:09;8.80;94.50
73277;DHT22;61501;43.316;5.372;2022-11-20T05:43:36;8.80;94.50
73277;DHT22;61501;43.316;5.372;2022-11-20T05:46:02;8.70;94.50
73277;DHT22;61501;43.316;5.372;2022-11-20T05:48:29;8.80;94.50
73277;DHT22;61501;43.316;5.372;2022-11-20T05:50:57;8.70;94.50
73277;DHT22;61501;43.316;5.372;2022-11-20T05:53:24;8.70;94.70
73277;DHT22;61501;43.316;5.372;2022-11-20T05:55:59;8.70;94.70
73277;DHT22;61501;43.316;5.372;2022-11-20T05:58:25;8.70;94.80
73277;DHT22;61501;43.316;5.372;2022-11-20T06:00:51;8.70;94.80
73277;DHT22;61501;43.316;5.372;2022-11-20T06:03:17;8.70;94.90
73277;DHT22;61501;43.316;5.372;2022-11-20T06:05:43;8.70;94.90
73277;DHT22;61501;43.316;5.372;2022-11-20T06:08:09;8.60;94.80
73277;DHT22;61501;43.316;5.372;2022-11-20T06:10:34;8.70;94.90
73277;DHT22;61501;43.316;5.372;2022-11-20T06:13:00;8.70;94.90
73277;DHT22;61501;43.316;5.372;2022-11-20T06:15:25;8.70;94.80
73277;DHT22;61501;43.316;5.372;2022-11-20T06:17:55;8.60;94.80
73277;DHT22;61501;43.316;5.372;2022-11-20T06:20:21;8.70;94.70
73277;DHT22;61501;43.316;5.372;2022-11-20T06:22:47;8.70;94.70
73277;DHT22;61501;43.316;5.372;2022-11-20T06:25:13;8.60;94.70
73277;DHT22;61501;43.316;5.372;2022-11-20T06:27:39;8.70;94.70
73277;DHT22;61501;43.316;5.372;2022-11-20T06:30:05;8.60;94.70
73277;DHT22;61501;43.316;5.372;2022-11-20T06:32:31;8.60;94.70
73277;DHT22;61501;43.316;5.372;2022-11-20T06:34:57;8.60;94.60
73277;DHT22;61501;43.316;5.372;2022-11-20T06:37:23;8.60;94.60
73277;DHT22;61501;43.316;5.372;2022-11-20T06:39:48;8.60;94.60
73277;DHT22;61501;43.316;5.372;2022-11-20T06:42:14;8.60;94.70
73277;DHT22;61501;43.316;5.372;2022-11-20T06:44:40;8.60;94.70
73277;DHT22;61501;43.316;5.372;2022-11-20T06:47:05;8.60;94.60
73277;DHT22;61501;43.316;5.372;2022-11-20T06:49:31;8.60;94.70
73277;DHT22;61501;43.316;5.372;2022-11-20T06:51:57;8.60;94.50
73277;DHT22;61501;43.316;5.372;2022-11-20T06:54:22;8.60;94.30
73277;DHT22;61501;43.316;5.372;2022-11-20T06:56:48;8.60;94.40
73277;DHT22;61501;43.316;5.372;2022-11-20T06:59:14;8.60;94.40
73277;DHT22;61501;43.316;5.372;2022-11-20T07:01:40;8.70;94.30
73277;DHT22;61501;43.316;5.372;2022-11-20T07:04:05;8.60;94.20
73277;DHT22;61501;43.316;5.372;2022-11-20T07:06:31;8.70;94.20
73277;DHT22;61501;43.316;5.372;2022-11-20T07:08:57;8.70;94.20
73277;DHT22;61501;43.316;5.372;2022-11-20T07:11:23;8.70;94.10
73277;DHT22;61501;43.316;5.372;2022-11-20T07:13:49;8.70;94.60
73277;DHT22;61501;43.316;5.372;2022-11-20T07:16:15;8.70;94.00
73277;DHT22;61501;43.316;5.372;2022-11-20T07:18:41;8.80;93.80
73277;DHT22;61501;43.316;5.372;2022-11-20T07:21:09;8.80;93.90
73277;DHT22;61501;43.316;5.372;2022-11-20T07:23:35;8.80;93.80
73277;DHT22;61501;43.316;5.372;2022-11-20T07:26:09;8.80;93.70
73277;DHT22;61501;43.316;5.372;2022-11-20T07:28:35;8.90;93.80
73277;DHT22;61501;43.316;5.372;2022-11-20T07:31:01;8.90;93.60
73277;DHT22;61501;43.316;5.372;2022-11-20T07:33:27;8.90;93.60
73277;DHT22;61501;43.316;5.372;2022-11-20T07:35:52;8.90;93.50
73277;DHT22;61501;43.316;5.372;2022-11-20T07:38:18;8.90;93.40
73277;DHT22;61501;43.316;5.372;2022-11-20T07:40:44;8.90;93.50
73277;DHT22;61501;43.316;5.372;2022-11-20T07:43:09;9.00;93.60
73277;DHT22;61501;43.316;5.372;2022-11-20T07:45:35;9.00;93.40
73277;DHT22;61501;43.316;5.372;2022-11-20T07:48:01;9.00;93.20
73277;DHT22;61501;43.316;5.372;2022-11-20T07:50:26;9.10;93.20
73277;DHT22;61501;43.316;5.372;2022-11-20T07:52:52;9.10;93.20
73277;DHT22;61501;43.316;5.372;2022-11-20T07:55:18;9.10;93.10
73277;DHT22;61501;43.316;5.372;2022-11-20T07:57:43;9.20;93.00
73277;DHT22;61501;43.316;5.372;2022-11-20T08:00:10;9.20;92.80
73277;DHT22;61501;43.316;5.372;2022-11-20T08:02:37;9.20;92.80
73277;DHT22;61501;43.316;5.372;2022-11-20T08:05:04;9.30;92.80
73277;DHT22;61501;43.316;5.372;2022-11-20T08:07:36;9.20;92.60
73277;DHT22;61501;43.316;5.372;2022-11-20T08:10:02;9.20;92.50
73277;DHT22;61501;43.316;5.372;2022-11-20T08:12:27;9.30;92.40
73277;DHT22;61501;43.316;5.372;2022-11-20T08:15:12;9.30;92.20
73277;DHT22;61501;43.316;5.372;2022-11-20T08:17:38;9.40;92.10
73277;DHT22;61501;43.316;5.372;2022-11-20T08:20:03;9.40;92.00
73277;DHT22;61501;43.316;5.372;2022-11-20T08:22:29;9.40;91.70
73277;DHT22;61501;43.316;5.372;2022-11-20T08:24:55;9.40;91.60
73277;DHT22;61501;43.316;5.372;2022-11-20T08:27:20;9.40;91.50
73277;DHT22;61501;43.316;5.372;2022-11-20T08:29:46;9.50;91.40
73277;DHT22;61501;43.316;5.372;2022-11-20T08:32:12;9.60;91.20
73277;DHT22;61501;43.316;5.372;2022-11-20T08:34:37;9.60;90.90
73277;DHT22;61501;43.316;5.372;2022-11-20T08:37:03;9.60;90.70
73277;DHT22;61501;43.316;5.372;2022-11-20T08:39:28;9.60;90.60
73277;DHT22;61501;43.316;5.372;2022-11-20T08:41:54;9.70;90.70
73277;DHT22;61501;43.316;5.372;2022-11-20T08:44:20;9.70;90.40
73277;DHT22;61501;43.316;5.372;2022-11-20T08:46:45;9.80;90.10
73277;DHT22;61501;43.316;5.372;2022-11-20T08:49:13;9.80;90.10
73277;DHT22;61501;43.316;5.372;2022-11-20T08:51:39;9.90;89.60
73277;DHT22;61501;43.316;5.372;2022-11-20T08:54:06;9.90;89.90
73277;DHT22;61501;43.316;5.372;2022-11-20T08:56:31;10.00;89.20
73277;DHT22;61501;43.316;5.372;2022-11-20T08:58:57;10.00;89.00
73277;DHT22;61501;43.316;5.372;2022-11-20T09:01:25;10.00;89.00
73277;DHT22;61501;43.316;5.372;2022-11-20T09:03:51;10.10;88.50
73277;DHT22;61501;43.316;5.372;2022-11-20T09:06:17;10.10;88.00
73277;DHT22;61501;43.316;5.372;2022-11-20T09:08:43;10.10;87.70
73277;DHT22;61501;43.316;5.372;2022-11-20T09:11:08;10.20;88.00
73277;DHT22;61501;43.316;5.372;2022-11-20T09:13:35;10.20;87.70
73277;DHT22;61501;43.316;5.372;2022-11-20T09:16:07;10.20;87.00
73277;DHT22;61501;43.316;5.372;2022-11-20T09:18:34;10.30;86.80
73277;DHT22;61501;43.316;5.372;2022-11-20T09:21:03;10.30;86.70
73277;DHT22;61501;43.316;5.372;2022-11-20T09:23:34;10.30;86.30
73277;DHT22;61501;43.316;5.372;2022-11-20T09:26:05;10.30;86.40
73277;DHT22;61501;43.316;5.372;2022-11-20T09:28:31;10.30;86.40
73277;DHT22;61501;43.316;5.372;2022-11-20T09:30:57;10.40;86.30
73277;DHT22;61501;43.316;5.372;2022-11-20T09:33:23;10.40;85.90
73277;DHT22;61501;43.316;5.372;2022-11-20T09:35:48;10.40;86.10
73277;DHT22;61501;43.316;5.372;2022-11-20T09:38:14;10.40;85.60
73277;DHT22;61501;43.316;5.372;2022-11-20T09:40:45;10.50;85.70
73277;DHT22;61501;43.316;5.372;2022-11-20T09:43:28;10.50;85.20
73277;DHT22;61501;43.316;5.372;2022-11-20T09:56:44;10.70;82.60
73277;DHT22;61501;43.316;5.372;2022-11-20T09:59:36;10.80;81.30
73277;DHT22;61501;43.316;5.372;2022-11-20T10:05:06;10.90;81.10
73277;DHT22;61501;43.316;5.372;2022-11-20T10:08:07;11.00;80.80
73277;DHT22;61501;43.316;5.372;2022-11-20T10:10:43;11.00;80.40
73277;DHT22;61501;43.316;5.372;2022-11-20T10:24:56;11.30;79.70
73277;DHT22;61501;43.316;5.372;2022-11-20T10:30:03;11.50;77.80
73277;DHT22;61501;43.316;5.372;2022-11-20T10:32:38;11.50;77.20
73277;DHT22;61501;43.316;5.372;2022-11-20T10:37:42;11.50;75.30
73277;DHT22;61501;43.316;5.372;2022-11-20T10:40:34;11.50;76.00
73277;DHT22;61501;43.316;5.372;2022-11-20T10:43:21;11.50;75.60
73277;DHT22;61501;43.316;5.372;2022-11-20T10:46:08;11.60;74.70
73277;DHT22;61501;43.316;5.372;2022-11-20T10:48:36;11.60;73.70
73277;DHT22;61501;43.316;5.372;2022-11-20T10:59:10;11.80;72.90
73277;DHT22;61501;43.316;5.372;2022-11-20T11:01:42;11.90;75.20
73277;DHT22;61501;43.316;5.372;2022-11-20T11:04:38;11.90;74.80
73277;DHT22;61501;43.316;5.372;2022-11-20T11:07:36;11.90;74.90
73277;DHT22;61501;43.316;5.372;2022-11-20T11:10:16;11.90;75.50
73277;DHT22;61501;43.316;5.372;2022-11-20T11:12:49;12.00;73.80
73277;DHT22;61501;43.316;5.372;2022-11-20T11:15:37;12.00;73.70
73277;DHT22;61501;43.316;5.372;2022-11-20T11:18:10;12.00;72.60
73277;DHT22;61501;43.316;5.372;2022-11-20T11:20:36;12.00;73.20
73277;DHT22;61501;43.316;5.372;2022-11-20T11:23:02;12.10;72.70
73277;DHT22;61501;43.316;5.372;2022-11-20T11:25:32;12.20;72.90
73277;DHT22;61501;43.316;5.372;2022-11-20T11:28:04;12.30;73.30
73277;DHT22;61501;43.316;5.372;2022-11-20T11:30:41;12.30;70.80
73277;DHT22;61501;43.316;5.372;2022-11-20T11:33:11;12.40;70.80
73277;DHT22;61501;43.316;5.372;2022-11-20T11:35:54;12.80;68.30
73277;DHT22;61501;43.316;5.372;2022-11-20T11:38:30;13.20;66.20
73277;DHT22;61501;43.316;5.372;2022-11-20T11:40:57;14.00;64.20
73277;DHT22;61501;43.316;5.372;2022-11-20T11:43:26;15.00;61.50
73277;DHT22;61501;43.316;5.372;2022-11-20T11:46:31;15.60;58.90
73277;DHT22;61501;43.316;5.372;2022-11-20T11:49:08;15.70;58.20
73277;DHT22;61501;43.316;5.372;2022-11-20T11:52:08;15.90;58.10
73277;DHT22;61501;43.316;5.372;2022-11-20T11:57:38;16.50;55.20
73277;DHT22;61501;43.316;5.372;2022-11-20T12:00:12;16.70;53.70
73277;DHT22;61501;43.316;5.372;2022-11-20T12:08:24;16.80;52.80
73277;DHT22;61501;43.316;5.372;2022-11-20T12:15:54;16.30;53.00
73277;DHT22;61501;43.316;5.372;2022-11-20T12:18:21;16.70;52.80
73277;DHT22;61501;43.316;5.372;2022-11-20T12:34:47;15.90;53.30
73277;DHT22;61501;43.316;5.372;2022-11-20T12:39:58;17.30;50.90
73277;DHT22;61501;43.316;5.372;2022-11-20T13:04:31;18.80;46.60
73277;DHT22;61501;43.316;5.372;2022-11-20T13:07:01;19.20;45.00
73277;DHT22;61501;43.316;5.372;2022-11-20T13:09:28;18.40;44.40
73277;DHT22;61501;43.316;5.372;2022-11-20T13:17:51;17.40;47.80
73277;DHT22;61501;43.316;5.372;2022-11-20T13:20:20;18.00;47.20
73277;DHT22;61501;43.316;5.372;2022-11-20T13:22:48;18.60;45.40
73277;DHT22;61501;43.316;5.372;2022-11-20T13:25:29;18.50;46.60
73277;DHT22;61501;43.316;5.372;2022-11-20T13:27:57;19.60;44.10
73277;DHT22;61501;43.316;5.372;2022-11-20T13:30:25;21.00;42.70
73277;DHT22;61501;43.316;5.372;2022-11-20T13:35:35;19.90;46.20
73277;DHT22;61501;43.316;5.372;2022-11-20T13:38:02;18.70;48.00
73277;DHT22;61501;43.316;5.372;2022-11-20T13:40:29;19.00;46.20
73277;DHT22;61501;43.316;5.372;2022-11-20T13:45:27;18.30;46.70
73277;DHT22;61501;43.316;5.372;2022-11-20T13:47:55;17.90;47.90
73277;DHT22;61501;43.316;5.372;2022-11-20T13:51:11;17.30;49.50
73277;DHT22;61501;43.316;5.372;2022-11-20T13:53:33;17.60;47.50
73277;DHT22;61501;43.316;5.372;2022-11-20T13:56:14;17.30;46.90
73277;DHT22;61501;43.316;5.372;2022-11-20T14:01:16;17.70;46.90
73277;DHT22;61501;43.316;5.372;2022-11-20T14:03:43;17.70;47.00
73277;DHT22;61501;43.316;5.372;2022-11-20T14:06:18;17.20;48.60
73277;DHT22;61501;43.316;5.372;2022-11-20T14:08:48;17.50;49.10
73277;DHT22;61501;43.316;5.372;2022-11-20T14:11:19;17.20;51.50
73277;DHT22;61501;43.316;5.372;2022-11-20T14:14:00;17.20;50.40
73277;DHT22;61501;43.316;5.372;2022-11-20T14:16:28;17.20;48.80
73277;DHT22;61501;43.316;5.372;2022-11-20T14:18:55;17.10;48.90
73277;DHT22;61501;43.316;5.372;2022-11-20T14:21:29;18.00;52.30
73277;DHT22;61501;43.316;5.372;2022-11-20T14:24:05;17.80;46.40
73277;DHT22;61501;43.316;5.372;2022-11-20T14:26:32;17.60;46.80
73277;DHT22;61501;43.316;5.372;2022-11-20T14:28:58;17.60;45.80
73277;DHT22;61501;43.316;5.372;2022-11-20T14:31:26;17.40;46.20
73277;DHT22;61501;43.316;5.372;2022-11-20T14:33:55;18.00;44.80
73277;DHT22;61501;43.316;5.372;2022-11-20T14:36:24;17.60;45.90
73277;DHT22;61501;43.316;5.372;2022-11-20T14:38:51;17.40;46.70
73277;DHT22;61501;43.316;5.372;2022-11-20T14:41:22;17.40;46.30
73277;DHT22;61501;43.316;5.372;2022-11-20T14:43:57;17.00;47.00
73277;DHT22;61501;43.316;5.372;2022-11-20T14:46:24;16.90;46.40
73277;DHT22;61501;43.316;5.372;2022-11-20T14:48:54;17.10;46.20
73277;DHT22;61501;43.316;5.372;2022-11-20T14:54:09;17.70;44.90
73277;DHT22;61501;43.316;5.372;2022-11-20T14:56:35;18.00;44.90
73277;DHT22;61501;43.316;5.372;2022-11-20T14:59:01;17.90;44.80
73277;DHT22;61501;43.316;5.372;2022-11-20T15:01:28;18.20;43.50
73277;DHT22;61501;43.316;5.372;2022-11-20T15:04:11;19.00;41.80
73277;DHT22;61501;43.316;5.372;2022-11-20T15:06:38;17.90;44.10
73277;DHT22;61501;43.316;5.372;2022-11-20T15:09:15;17.30;45.30
73277;DHT22;61501;43.316;5.372;2022-11-20T15:11:55;17.10;45.40
73277;DHT22;61501;43.316;5.372;2022-11-20T15:14:21;16.80;45.80
73277;DHT22;61501;43.316;5.372;2022-11-20T15:16:48;17.10;45.10
73277;DHT22;61501;43.316;5.372;2022-11-20T15:19:22;17.50;43.10
73277;DHT22;61501;43.316;5.372;2022-11-20T15:21:48;16.90;43.30
73277;DHT22;61501;43.316;5.372;2022-11-20T15:24:14;16.90;43.00
73277;DHT22;61501;43.316;5.372;2022-11-20T15:26:40;17.10;42.50
73277;DHT22;61501;43.316;5.372;2022-11-20T15:29:11;17.40;42.40
73277;DHT22;61501;43.316;5.372;2022-11-20T15:31:37;17.70;43.90
73277;DHT22;61501;43.316;5.372;2022-11-20T15:34:12;19.20;40.60
73277;DHT22;61501;43.316;5.372;2022-11-20T15:36:39;19.30;38.40
73277;DHT22;61501;43.316;5.372;2022-11-20T15:39:05;20.10;38.00
73277;DHT22;61501;43.316;5.372;2022-11-20T15:41:33;20.10;38.80
73277;DHT22;61501;43.316;5.372;2022-11-20T15:43:59;19.60;36.80
73277;DHT22;61501;43.316;5.372;2022-11-20T15:46:29;19.20;38.80
73277;DHT22;61501;43.316;5.372;2022-11-20T15:48:56;18.40;42.60
73277;DHT22;61501;43.316;5.372;2022-11-20T15:51:39;17.10;42.40
73277;DHT22;61501;43.316;5.372;2022-11-20T15:54:16;16.30;43.90
73277;DHT22;61501;43.316;5.372;2022-11-20T15:56:43;15.70;46.60
73277;DHT22;61501;43.316;5.372;2022-11-20T15:59:09;15.20;47.40
73277;DHT22;61501;43.316;5.372;2022-11-20T16:01:35;15.00;48.00
73277;DHT22;61501;43.316;5.372;2022-11-20T16:04:01;14.80;48.70
73277;DHT22;61501;43.316;5.372;2022-11-20T16:06:27;14.50;48.60
73277;DHT22;61501;43.316;5.372;2022-11-20T16:08:52;14.40;50.70
73277;DHT22;61501;43.316;5.372;2022-11-20T16:11:18;14.30;51.20
73277;DHT22;61501;43.316;5.372;2022-11-20T16:13:44;14.30;50.90
73277;DHT22;61501;43.316;5.372;2022-11-20T16:16:29;14.10;51.80
73277;DHT22;61501;43.316;5.372;2022-11-20T16:18:56;13.90;53.50
73277;DHT22;61501;43.316;5.372;2022-11-20T16:21:23;13.70;55.20
73277;DHT22;61501;43.316;5.372;2022-11-20T16:24:02;13.60;55.40
73277;DHT22;61501;43.316;5.372;2022-11-20T16:26:28;13.50;55.70
73277;DHT22;61501;43.316;5.372;2022-11-20T16:28:55;13.40;56.70
73277;DHT22;61501;43.316;5.372;2022-11-20T16:31:21;13.30;56.70
73277;DHT22;61501;43.316;5.372;2022-11-20T16:33:55;13.30;57.30
73277;DHT22;61501;43.316;5.372;2022-11-20T16:36:22;13.20;56.80
73277;DHT22;61501;43.316;5.372;2022-11-20T16:38:52;13.20;56.70
73277;DHT22;61501;43.316;5.372;2022-11-20T16:41:18;13.20;59.00
73277;DHT22;61501;43.316;5.372;2022-11-20T16:43:46;13.50;57.30
73277;DHT22;61501;43.316;5.372;2022-11-20T16:46:13;13.40;56.10
73277;DHT22;61501;43.316;5.372;2022-11-20T16:48:39;13.20;57.20
73277;DHT22;61501;43.316;5.372;2022-11-20T16:51:08;13.20;58.40
73277;DHT22;61501;43.316;5.372;2022-11-20T16:53:34;13.20;59.30
73277;DHT22;61501;43.316;5.372;2022-11-20T16:56:14;13.10;59.40
73277;DHT22;61501;43.316;5.372;2022-11-20T16:58:43;13.10;59.60
73277;DHT22;61501;43.316;5.372;2022-11-20T17:01:11;13.10;59.50
73277;DHT22;61501;43.316;5.372;2022-11-20T17:03:41;13.10;59.10
73277;DHT22;61501;43.316;5.372;2022-11-20T17:06:15;13.10;58.80
73277;DHT22;61501;43.316;5.372;2022-11-20T17:08:41;13.00;58.70
73277;DHT22;61501;43.316;5.372;2022-11-20T17:11:09;13.10;58.60
73277;DHT22;61501;43.316;5.372;2022-11-20T17:13:35;13.10;58.70
73277;DHT22;61501;43.316;5.372;2022-11-20T17:16:06;13.00;59.60
73277;DHT22;61501;43.316;5.372;2022-11-20T17:18:32;12.90;59.90
73277;DHT22;61501;43.316;5.372;2022-11-20T17:20:59;12.90;60.00
73277;DHT22;61501;43.316;5.372;2022-11-20T17:23:33;12.90;60.40
73277;DHT22;61501;43.316;5.372;2022-11-20T17:28:34;12.80;60.70
73277;DHT22;61501;43.316;5.372;2022-11-20T17:31:08;12.80;61.30
73277;DHT22;61501;43.316;5.372;2022-11-20T17:33:38;12.80;60.70
73277;DHT22;61501;43.316;5.372;2022-11-20T17:36:05;12.80;61.10
73277;DHT22;61501;43.316;5.372;2022-11-20T17:38:31;12.70;61.50
73277;DHT22;61501;43.316;5.372;2022-11-20T17:41:13;12.70;61.60
73277;DHT22;61501;43.316;5.372;2022-11-20T17:43:40;12.70;62.50
73277;DHT22;61501;43.316;5.372;2022-11-20T17:46:13;12.70;63.30